Time;durP1;ratioP1;P1;durP2;ratioP2;P2;SDS_P1;SDS_P2;PMS_P1;PMS_P2;Temp;Humidity;BMP_temperature;BMP_pressure;BME280_temperature;BME280_humidity;BME280_pressure;Samples;Min_cycle;Max_cycle;Signal;HPM_P1;HPM_P2
2021/12/11 21:22:29;;;;;;;31.97;18.67;;;3.10;99.90;;;;;;5050329;27;20570;-78
2021/12/11 21:24:58;;;;;;;34.47;20.93;;;3.00;99.90;;;;;;5047632;28;20180;-77
2021/12/11 21:27:30;;;;;;;43.43;29.03;;;3.00;99.90;;;;;;5046002;28;20194;-78
2021/12/11 21:29:58;;;;;;;41.37;23.70;;;3.10;99.90;;;;;;5047348;28;20158;-78
2021/12/11 21:32:28;;;;;;;44.30;29.20;;;3.20;99.90;;;;;;5046424;28;20242;-77
2021/12/11 21:38:18;;;;;;;44.23;30.07;;;3.30;99.90;;;;;;5047190;28;20219;-79
2021/12/11 21:40:49;;;;;;;39.87;27.30;;;3.30;99.90;;;;;;5046549;27;20218;-79
2021/12/11 21:43:37;;;;;;;33.63;23.17;;;3.30;99.90;;;;;;5045810;28;20170;-78
2021/12/11 21:46:14;;;;;;;32.77;22.60;;;3.50;99.90;;;;;;5045823;28;20206;-78
2021/12/11 21:48:50;;;;;;;28.47;19.20;;;3.50;99.90;;;;;;5046956;28;20216;-78
2021/12/11 21:51:26;;;;;;;29.27;19.10;;;3.60;99.90;;;;;;5046845;28;20170;-78
2021/12/11 21:53:58;;;;;;;28.27;19.40;;;3.60;99.90;;;;;;5045738;28;20178;-78
2021/12/11 21:56:25;;;;;;;28.97;19.83;;;3.70;99.90;;;;;;5046182;28;20199;-78
2021/12/11 21:58:56;;;;;;;32.30;20.90;;;3.70;99.90;;;;;;5046230;27;20265;-78
2021/12/11 22:01:30;;;;;;;28.67;19.23;;;3.70;99.90;;;;;;5045530;28;20194;-78
2021/12/11 22:04:05;;;;;;;27.13;18.87;;;3.60;99.90;;;;;;5045620;28;20170;-78
2021/12/11 22:06:35;;;;;;;28.87;19.80;;;3.60;99.90;;;;;;5046441;28;20284;-78
2021/12/11 22:09:05;;;;;;;26.67;18.27;;;3.60;99.90;;;;;;5045632;27;20179;-78
2021/12/11 22:11:33;;;;;;;31.37;18.93;;;3.60;99.90;;;;;;5045697;28;20185;-78
2021/12/11 22:14:40;;;;;;;25.63;18.13;;;3.60;99.90;;;;;;5045233;27;20680;-78
2021/12/11 22:17:10;;;;;;;28.90;17.93;;;3.60;99.90;;;;;;5045215;28;20285;-78
2021/12/11 22:19:40;;;;;;;28.80;17.47;;;3.60;99.90;;;;;;5045460;27;20238;-78
2021/12/11 22:22:09;;;;;;;29.97;17.70;;;3.60;99.90;;;;;;5046842;28;20170;-78
2021/12/11 22:25:10;;;;;;;28.27;18.07;;;3.60;99.90;;;;;;5045380;27;20178;-78
2021/12/11 22:27:36;;;;;;;26.83;17.47;;;3.50;99.90;;;;;;5045486;28;20198;-78
2021/12/11 22:30:11;;;;;;;27.97;17.90;;;3.60;99.90;;;;;;5046196;27;20174;-78
2021/12/11 22:37:19;;;;;;;26.43;18.13;;;3.60;99.90;;;;;;5033059;28;20247;-79
2021/12/11 22:39:59;;;;;;;32.00;18.67;;;3.60;99.90;;;;;;5033332;28;20259;-79
2021/12/11 22:42:54;;;;;;;32.90;19.10;;;3.50;99.90;;;;;;5033313;28;20243;-79
2021/12/11 22:45:39;;;;;;;29.07;18.93;;;3.50;99.90;;;;;;5032235;28;20171;-79
2021/12/11 22:48:10;;;;;;;27.07;18.47;;;3.40;99.90;;;;;;5033336;28;20200;-79
2021/12/11 22:50:54;;;;;;;30.80;18.80;;;3.40;99.90;;;;;;5031929;28;20186;-79
2021/12/11 22:53:30;;;;;;;30.80;19.13;;;3.20;99.90;;;;;;5031605;28;20171;-79
2021/12/11 22:56:15;;;;;;;31.07;19.53;;;3.20;99.90;;;;;;5032820;28;20194;-78
2021/12/11 22:58:49;;;;;;;31.20;19.33;;;3.00;99.90;;;;;;5032434;28;20167;-78
2021/12/11 23:01:49;;;;;;;30.27;18.60;;;3.10;99.90;;;;;;5031285;28;20194;-78
2021/12/11 23:04:24;;;;;;;32.87;21.33;;;3.20;99.90;;;;;;5031295;28;20258;-78
2021/12/11 23:07:00;;;;;;;32.10;20.67;;;3.20;99.90;;;;;;5031855;28;20195;-78
2021/12/11 23:09:42;;;;;;;36.43;21.83;;;3.30;99.90;;;;;;5033347;28;20166;-78
2021/12/11 23:12:18;;;;;;;39.87;24.37;;;3.40;99.90;;;;;;5033199;28;20531;-78
2021/12/11 23:15:05;;;;;;;35.83;22.07;;;3.50;99.90;;;;;;5032608;28;20210;-78
2021/12/11 23:17:40;;;;;;;37.90;22.10;;;3.50;99.90;;;;;;5033524;28;20203;-78
2021/12/11 23:20:21;;;;;;;44.53;26.17;;;3.50;99.90;;;;;;5033123;28;20214;-78
2021/12/11 23:22:56;;;;;;;44.27;24.53;;;3.60;99.90;;;;;;5034112;28;20155;-78
2021/12/11 23:25:32;;;;;;;39.70;23.23;;;3.50;99.90;;;;;;5033459;28;20175;-79
2021/12/11 23:28:08;;;;;;;36.33;23.40;;;3.40;99.90;;;;;;5032481;28;20202;-79
2021/12/11 23:31:05;;;;;;;37.93;23.37;;;3.30;99.90;;;;;;5032357;28;20163;-79
2021/12/11 23:33:43;;;;;;;34.60;21.20;;;3.30;99.90;;;;;;5034141;27;20199;-79
2021/12/11 23:36:24;;;;;;;34.37;22.33;;;3.20;99.90;;;;;;5032652;28;20211;-79
2021/12/11 23:39:08;;;;;;;44.80;23.60;;;3.30;99.90;;;;;;5032654;28;20170;-79
2021/12/11 23:41:46;;;;;;;41.43;23.17;;;3.30;99.90;;;;;;5032026;28;20221;-79
2021/12/11 23:44:40;;;;;;;38.30;23.13;;;3.30;99.90;;;;;;5032166;28;20246;-79
2021/12/11 23:47:14;;;;;;;39.03;22.47;;;3.30;99.90;;;;;;5023585;28;20238;-78
2021/12/11 23:49:46;;;;;;;37.20;22.40;;;3.20;99.90;;;;;;5034240;28;20204;-78
2021/12/11 23:52:13;;;;;;;37.53;21.83;;;3.40;99.90;;;;;;5033663;28;20194;-80
2021/12/11 23:54:45;;;;;;;41.93;23.37;;;3.40;99.90;;;;;;5035714;28;20212;-80
2021/12/11 23:57:26;;;;;;;37.03;22.23;;;3.40;99.90;;;;;;5033853;28;20352;-80
